createdAt,value
2018-07-08T00:01:29.081Z,101725.37
2018-07-08T00:03:57.293Z,101728.77
2018-07-08T00:06:25.474Z,101723.31
2018-07-08T00:08:53.711Z,101723.70
2018-07-08T00:11:21.951Z,101726.30
2018-07-08T00:13:50.234Z,101724.23
2018-07-08T00:16:18.566Z,101723.98
2018-07-08T00:18:46.767Z,101719.92
2018-07-08T00:21:15.093Z,101717.11
2018-07-08T00:23:43.261Z,101723.19
2018-07-08T00:26:11.461Z,101718.26
2018-07-08T00:28:39.820Z,101718.41
2018-07-08T00:31:07.979Z,101721.34
2018-07-08T00:33:36.208Z,101719.98
2018-07-08T00:36:04.481Z,101717.34
2018-07-08T00:38:32.822Z,101707.78
2018-07-08T00:41:01.028Z,101704.86
2018-07-08T00:43:29.217Z,101706.97
2018-07-08T00:45:57.444Z,101705.09
2018-07-08T00:48:25.629Z,101706.55
2018-07-08T00:50:53.801Z,101706.30
2018-07-08T00:53:22.011Z,101713.05
2018-07-08T00:55:50.359Z,101716.41
2018-07-08T00:58:18.645Z,101717.77
2018-07-08T01:00:47.040Z,101722.45
2018-07-08T01:03:21.923Z,101718.50
2018-07-08T01:05:50.148Z,101713.39
2018-07-08T01:08:18.385Z,101718.73
2018-07-08T01:10:46.637Z,101721.63
2018-07-08T01:13:14.923Z,101725.16
2018-07-08T01:15:43.156Z,101708.40
2018-07-08T01:18:11.439Z,101716.16
2018-07-08T01:20:39.667Z,101701.87
2018-07-08T01:23:07.928Z,101711.75
2018-07-08T01:25:47.468Z,101708.92
2018-07-08T01:28:15.688Z,101719.88
2018-07-08T01:30:43.970Z,101718.25
2018-07-08T01:33:12.201Z,101721.61
2018-07-08T01:35:40.473Z,101717.31
2018-07-08T01:38:08.687Z,101722.02
2018-07-08T01:40:37.545Z,101725.41
2018-07-08T01:43:05.791Z,101722.74
2018-07-08T01:45:34.010Z,101732.58
2018-07-08T01:48:02.257Z,101732.78
2018-07-08T01:50:30.477Z,101734.63
2018-07-08T01:52:58.771Z,101722.91
2018-07-08T01:55:27.224Z,101730.25
2018-07-08T01:57:55.466Z,101730.00
2018-07-08T02:00:23.950Z,101727.02
2018-07-08T02:02:52.173Z,101730.81
2018-07-08T02:05:20.417Z,101734.34
2018-07-08T02:07:48.652Z,101738.30
2018-07-08T02:10:16.868Z,101726.62
2018-07-08T02:12:45.056Z,101728.44
2018-07-08T02:15:13.323Z,101729.16
2018-07-08T02:17:41.557Z,101728.20
2018-07-08T02:20:09.876Z,101731.60
2018-07-08T02:22:38.660Z,101726.56
2018-07-08T02:25:06.962Z,101725.91
2018-07-08T02:27:35.175Z,101723.52
2018-07-08T02:30:03.389Z,101720.37
2018-07-08T02:32:31.647Z,101723.92
2018-07-08T02:35:00.130Z,101720.89
2018-07-08T02:37:28.514Z,101717.56
2018-07-08T02:39:56.710Z,101719.36
2018-07-08T02:42:25.443Z,101717.75
2018-07-08T02:44:53.735Z,101712.45
2018-07-08T02:47:22.121Z,101713.34
2018-07-08T02:49:50.622Z,101718.36
2018-07-08T02:52:19.308Z,101704.59
2018-07-08T02:54:47.585Z,101708.75
2018-07-08T02:57:16.057Z,101712.52
2018-07-08T02:59:45.124Z,101717.38
2018-07-08T03:02:13.352Z,101710.16
2018-07-08T03:04:41.700Z,101713.16
2018-07-08T03:07:09.916Z,101710.19
2018-07-08T03:09:38.143Z,101715.65
2018-07-08T03:12:06.632Z,101717.20
2018-07-08T03:14:34.853Z,101720.34
2018-07-08T03:17:03.089Z,101714.84
2018-07-08T03:19:31.295Z,101714.84
2018-07-08T03:21:59.547Z,101722.56
2018-07-08T03:24:27.769Z,101727.83
2018-07-08T03:26:55.988Z,101729.89
2018-07-08T03:29:24.188Z,101726.92
2018-07-08T03:31:52.562Z,101724.13
2018-07-08T03:34:20.790Z,101731.66
2018-07-08T03:36:49.026Z,101733.53
2018-07-08T03:39:17.363Z,101732.30
2018-07-08T03:41:45.620Z,101737.46
2018-07-08T03:44:13.844Z,101739.70
2018-07-08T03:46:42.069Z,101736.94
2018-07-08T03:49:10.323Z,101738.83
2018-07-08T03:51:38.534Z,101739.63
2018-07-08T03:54:15.412Z,101741.13
2018-07-08T03:56:43.696Z,101741.98
2018-07-08T03:59:11.904Z,101744.60
2018-07-08T04:01:40.184Z,101745.85
2018-07-08T04:04:08.463Z,101743.16
2018-07-08T04:06:36.758Z,101735.66
2018-07-08T04:09:05.280Z,101739.20
2018-07-08T04:11:33.552Z,101736.56
2018-07-08T04:14:01.851Z,101741.08
2018-07-08T04:16:30.244Z,101737.94
2018-07-08T04:18:58.481Z,101730.71
2018-07-08T04:21:26.706Z,101729.52
2018-07-08T04:23:54.947Z,101735.08
2018-07-08T04:26:23.207Z,101740.25
2018-07-08T04:28:51.467Z,101738.45
2018-07-08T04:31:19.687Z,101747.66
2018-07-08T04:33:47.919Z,101750.57
2018-07-08T04:36:16.187Z,101745.84
2018-07-08T04:38:44.473Z,101750.67
2018-07-08T04:41:12.691Z,101747.81
2018-07-08T04:43:40.915Z,101759.59
2018-07-08T04:46:09.239Z,101761.00
2018-07-08T04:48:37.454Z,101760.85
2018-07-08T04:51:05.684Z,101757.61
2018-07-08T04:53:33.893Z,101757.88
2018-07-08T04:56:02.142Z,101762.29
2018-07-08T04:58:30.373Z,101763.70
2018-07-08T05:00:58.730Z,101769.06
2018-07-08T05:03:26.909Z,101770.97
2018-07-08T05:05:55.142Z,101771.05
2018-07-08T05:08:23.392Z,101775.38
2018-07-08T05:10:51.661Z,101782.16
2018-07-08T05:13:19.872Z,101784.03
2018-07-08T05:15:48.163Z,101769.44
2018-07-08T05:18:16.414Z,101784.03
2018-07-08T05:20:44.621Z,101781.44
2018-07-08T05:23:12.872Z,101781.48
2018-07-08T05:25:41.129Z,101788.78
2018-07-08T05:28:09.380Z,101789.49
2018-07-08T05:30:37.683Z,101790.84
2018-07-08T05:33:06.043Z,101801.09
2018-07-08T05:35:34.518Z,101796.87
2018-07-08T05:38:02.752Z,101801.45
2018-07-08T05:40:31.070Z,101800.48
2018-07-08T05:42:59.317Z,101800.77
2018-07-08T05:45:27.577Z,101800.93
2018-07-08T05:47:55.809Z,101801.05
2018-07-08T05:50:24.117Z,101811.73
2018-07-08T05:52:52.353Z,101809.05
2018-07-08T05:55:20.604Z,101804.72
2018-07-08T05:57:48.825Z,101806.83
2018-07-08T06:00:17.136Z,101806.37
2018-07-08T06:02:45.320Z,101806.99
2018-07-08T06:05:13.577Z,101803.11
2018-07-08T06:07:41.853Z,101807.11
2018-07-08T06:10:10.075Z,101794.68
2018-07-08T06:12:38.328Z,101802.34
2018-07-08T06:15:06.561Z,101798.09
2018-07-08T06:17:34.819Z,101807.02
2018-07-08T06:20:03.085Z,101807.02
2018-07-08T06:22:31.326Z,101796.70
2018-07-08T06:24:59.598Z,101798.38
2018-07-08T06:27:27.854Z,101799.77
2018-07-08T06:29:56.070Z,101799.86
2018-07-08T06:32:24.324Z,101794.86
2018-07-08T06:34:52.938Z,101798.41
2018-07-08T06:37:21.190Z,101798.86
2018-07-08T06:39:49.417Z,101804.42
2018-07-08T06:42:17.631Z,101793.16
2018-07-08T06:44:46.530Z,101794.67
2018-07-08T06:47:14.846Z,101794.36
2018-07-08T06:49:43.224Z,101790.30
2018-07-08T06:52:11.466Z,101786.05
2018-07-08T06:54:39.726Z,101784.75
2018-07-08T06:57:07.970Z,101797.72
2018-07-08T06:59:36.295Z,101801.45
2018-07-08T07:02:04.568Z,101795.91
2018-07-08T07:04:32.754Z,101800.88
2018-07-08T07:07:01.037Z,101801.70
2018-07-08T07:09:29.272Z,101800.30
2018-07-08T07:11:57.509Z,101804.97
2018-07-08T07:14:25.831Z,101808.29
2018-07-08T07:16:54.740Z,101806.02
2018-07-08T07:19:22.938Z,101801.78
2018-07-08T07:21:51.219Z,101805.38
2018-07-08T07:24:19.431Z,101802.86
2018-07-08T07:26:48.024Z,101803.52
2018-07-08T07:29:16.314Z,101800.94
2018-07-08T07:31:44.665Z,101802.59
2018-07-08T07:34:12.892Z,101805.64
2018-07-08T07:36:41.118Z,101803.30
2018-07-08T07:39:09.449Z,101801.16
2018-07-08T07:41:38.591Z,101805.47
2018-07-08T07:44:06.879Z,101805.83
2018-07-08T07:46:35.118Z,101805.67
2018-07-08T07:49:03.348Z,101813.24
2018-07-08T07:51:31.564Z,101804.35
2018-07-08T07:53:59.766Z,101805.25
2018-07-08T07:56:27.985Z,101801.73
2018-07-08T07:58:56.261Z,101804.94
2018-07-08T08:01:24.551Z,101809.19
2018-07-08T08:03:52.790Z,101804.66
2018-07-08T08:06:21.254Z,101805.04
2018-07-08T08:08:49.553Z,101801.30
2018-07-08T08:11:17.939Z,101804.04
2018-07-08T08:13:57.253Z,101801.05
2018-07-08T08:16:26.569Z,101810.07
2018-07-08T08:18:54.877Z,101798.11
2018-07-08T08:21:23.448Z,101804.75
2018-07-08T08:23:51.721Z,101805.00
2018-07-08T08:26:20.225Z,101798.19
2018-07-08T08:28:48.599Z,101791.79
2018-07-08T08:31:17.515Z,101794.80
2018-07-08T08:33:55.687Z,101804.33
2018-07-08T08:36:23.917Z,101797.59
2018-07-08T08:38:52.188Z,101802.03
2018-07-08T08:41:20.435Z,101804.18
2018-07-08T08:43:48.737Z,101807.31
2018-07-08T08:46:16.972Z,101812.75
2018-07-08T08:48:45.192Z,101809.13
2018-07-08T08:51:13.461Z,101802.44
2018-07-08T08:53:41.732Z,101805.38
2018-07-08T08:56:11.611Z,101808.95
2018-07-08T08:58:39.902Z,101812.50
2018-07-08T09:01:08.246Z,101811.41
2018-07-08T09:03:36.568Z,101799.44
2018-07-08T09:06:04.899Z,101801.91
2018-07-08T09:08:33.166Z,101813.95
2018-07-08T09:11:01.420Z,101808.48
2018-07-08T09:13:30.131Z,101815.83
2018-07-08T09:15:58.372Z,101822.66
2018-07-08T09:18:26.636Z,101814.80
2018-07-08T09:20:54.871Z,101812.34
2018-07-08T09:23:23.267Z,101801.72
2018-07-08T09:25:51.629Z,101810.66
2018-07-08T09:28:19.870Z,101805.81
2018-07-08T09:30:48.141Z,101798.73
2018-07-08T09:33:16.564Z,101801.45
2018-07-08T09:35:52.501Z,101801.73
2018-07-08T09:38:22.059Z,101800.63
2018-07-08T09:40:50.391Z,101796.02
2018-07-08T09:43:20.194Z,101797.66
2018-07-08T09:45:48.452Z,101805.30
2018-07-08T09:48:19.373Z,101803.92
2018-07-08T09:50:48.967Z,101796.56
2018-07-08T09:53:17.244Z,101799.03
2018-07-08T09:55:45.725Z,101799.57
2018-07-08T09:58:14.001Z,101798.49
2018-07-08T10:00:42.287Z,101794.55
2018-07-08T10:03:10.597Z,101804.41
2018-07-08T10:05:38.830Z,101803.36
2018-07-08T10:08:07.061Z,101803.37
2018-07-08T10:10:35.316Z,101801.19
2018-07-08T10:13:03.484Z,101803.34
2018-07-08T10:15:31.767Z,101807.73
2018-07-08T10:17:59.985Z,101807.17
2018-07-08T10:20:28.326Z,101812.34
2018-07-08T10:22:56.601Z,101806.28
2018-07-08T10:25:25.156Z,101805.72
2018-07-08T10:28:01.940Z,101798.91
2018-07-08T10:30:30.177Z,101804.36
2018-07-08T10:32:58.460Z,101817.65
2018-07-08T10:35:37.892Z,101805.09
2018-07-08T10:38:06.236Z,101797.81
2018-07-08T10:40:34.441Z,101797.97
2018-07-08T10:43:02.720Z,101796.53
2018-07-08T10:45:31.000Z,101803.75
2018-07-08T10:47:59.245Z,101805.63
2018-07-08T10:50:27.472Z,101801.55
2018-07-08T10:52:55.739Z,101802.91
2018-07-08T10:55:24.244Z,101806.83
2018-07-08T10:57:52.428Z,101801.30
2018-07-08T11:00:20.736Z,101798.09
2018-07-08T11:02:49.002Z,101801.31
2018-07-08T11:05:18.206Z,101793.72
2018-07-08T11:07:46.447Z,101792.12
2018-07-08T11:10:14.700Z,101800.41
2018-07-08T11:12:42.955Z,101802.33
2018-07-08T11:15:11.161Z,101798.02
2018-07-08T11:17:39.417Z,101798.25
2018-07-08T11:20:07.684Z,101796.95
2018-07-08T11:22:35.902Z,101799.59
2018-07-08T11:25:04.176Z,101786.28
2018-07-08T11:27:32.400Z,101777.25
2018-07-08T11:30:00.649Z,101794.82
2018-07-08T11:32:28.871Z,101782.91
2018-07-08T11:34:57.100Z,101784.89
2018-07-08T11:37:25.297Z,101782.18
2018-07-08T11:39:53.490Z,101779.13
2018-07-08T11:42:21.745Z,101782.63
2018-07-08T11:44:50.104Z,101779.54
2018-07-08T11:47:18.436Z,101773.33
2018-07-08T11:49:46.670Z,101773.34
2018-07-08T11:52:14.908Z,101773.80
2018-07-08T11:54:43.157Z,101773.77
2018-07-08T11:57:11.434Z,101775.70
2018-07-08T11:59:39.668Z,101781.06
2018-07-08T12:02:07.933Z,101784.06
2018-07-08T12:04:36.136Z,101781.18
2018-07-08T12:07:04.375Z,101775.77
2018-07-08T12:09:32.631Z,101773.03
2018-07-08T12:12:00.835Z,101772.65
2018-07-08T12:14:29.535Z,101772.24
2018-07-08T12:16:57.995Z,101767.78
2018-07-08T12:19:26.290Z,101773.87
2018-07-08T12:21:54.631Z,101770.05
2018-07-08T12:24:23.008Z,101775.01
2018-07-08T12:26:51.187Z,101777.54
2018-07-08T12:29:19.457Z,101774.88
2018-07-08T12:31:47.756Z,101773.58
2018-07-08T12:34:16.015Z,101780.14
2018-07-08T12:36:44.338Z,101771.41
2018-07-08T12:39:13.568Z,101777.61
2018-07-08T12:41:42.305Z,101771.41
2018-07-08T12:44:10.664Z,101776.34
2018-07-08T12:46:39.540Z,101773.25
2018-07-08T12:49:07.990Z,101771.63
2018-07-08T12:51:36.200Z,101759.55
2018-07-08T12:54:04.582Z,101771.52
2018-07-08T12:56:32.808Z,101764.45
2018-07-08T12:59:01.101Z,101765.11
2018-07-08T13:01:29.309Z,101763.77
2018-07-08T13:03:57.612Z,101774.12
2018-07-08T13:06:25.887Z,101770.92
2018-07-08T13:08:54.184Z,101772.42
2018-07-08T13:11:22.548Z,101766.73
2018-07-08T13:13:50.782Z,101764.35
2018-07-08T13:16:19.018Z,101786.27
2018-07-08T13:18:47.221Z,101778.58
2018-07-08T13:21:15.581Z,101774.98
2018-07-08T13:23:43.802Z,101767.85
2018-07-08T13:26:12.167Z,101778.87
2018-07-08T13:28:40.427Z,101773.30
2018-07-08T13:31:09.436Z,101775.13
2018-07-08T13:33:37.653Z,101773.31
2018-07-08T13:36:05.880Z,101783.77
2018-07-08T13:38:34.092Z,101768.08
2018-07-08T13:41:02.325Z,101775.91
2018-07-08T13:43:30.572Z,101775.06
2018-07-08T13:45:58.787Z,101769.48
2018-07-08T13:48:27.068Z,101776.80
2018-07-08T13:50:55.317Z,101780.66
2018-07-08T13:53:25.908Z,101771.11
2018-07-08T13:58:37.640Z,101770.81
2018-07-08T14:01:05.963Z,101765.86
2018-07-08T14:03:34.731Z,101774.69
2018-07-08T14:06:02.990Z,101773.16
2018-07-08T14:08:31.165Z,101773.95
2018-07-08T14:10:59.470Z,101766.14
2018-07-08T14:13:27.667Z,101771.38
2018-07-08T14:15:56.325Z,101768.89
2018-07-08T14:18:24.570Z,101767.81
2018-07-08T14:20:52.824Z,101767.96
2018-07-08T14:23:21.029Z,101763.07
2018-07-08T14:25:49.264Z,101767.03
2018-07-08T14:28:17.572Z,101763.13
2018-07-08T14:30:45.798Z,101771.71
2018-07-08T14:33:14.004Z,101755.07
2018-07-08T14:35:42.226Z,101756.45
2018-07-08T14:38:10.481Z,101761.90
2018-07-08T14:40:38.728Z,101762.33
2018-07-08T14:43:06.923Z,101760.89
2018-07-08T14:45:35.152Z,101758.03
2018-07-08T14:48:03.405Z,101753.40
2018-07-08T14:50:31.659Z,101746.92
2018-07-08T14:52:59.883Z,101751.53
2018-07-08T14:55:28.128Z,101749.73
2018-07-08T14:57:56.406Z,101743.11
2018-07-08T15:00:24.625Z,101737.39
2018-07-08T15:02:52.874Z,101744.48
2018-07-08T15:05:21.106Z,101739.78
2018-07-08T15:07:49.366Z,101738.23
2018-07-08T15:10:17.570Z,101739.51
2018-07-08T15:12:45.833Z,101737.11
2018-07-08T15:15:14.087Z,101742.00
2018-07-08T15:17:42.351Z,101736.18
2018-07-08T15:20:10.619Z,101734.92
2018-07-08T15:22:38.823Z,101738.81
2018-07-08T15:25:07.156Z,101737.86
2018-07-08T15:27:35.376Z,101738.19
2018-07-08T15:30:03.681Z,101735.80
2018-07-08T15:32:32.400Z,101728.13
2018-07-08T15:35:00.619Z,101726.03
2018-07-08T15:37:29.159Z,101731.83
2018-07-08T15:39:57.375Z,101724.17
2018-07-08T15:42:25.593Z,101736.47
2018-07-08T15:44:53.846Z,101733.27
2018-07-08T15:47:22.329Z,101730.25
2018-07-08T15:49:50.511Z,101736.34
2018-07-08T15:52:18.745Z,101729.09
2018-07-08T15:54:47.339Z,101722.44
2018-07-08T15:57:15.565Z,101730.72
2018-07-08T15:59:43.951Z,101727.58
2018-07-08T16:02:12.197Z,101721.48
2018-07-08T16:04:40.488Z,101729.03
2018-07-08T16:07:08.695Z,101722.66
2018-07-08T16:09:37.427Z,101721.61
2018-07-08T16:12:05.705Z,101727.05
2018-07-08T16:14:33.902Z,101725.08
2018-07-08T16:17:09.426Z,101722.56
2018-07-08T16:19:37.671Z,101728.98
2018-07-08T16:22:05.892Z,101717.65
2018-07-08T16:24:34.169Z,101721.60
2018-07-08T16:27:02.523Z,101724.64
2018-07-08T16:29:31.441Z,101717.89
2018-07-08T16:32:00.499Z,101718.37
2018-07-08T16:34:28.700Z,101710.33
2018-07-08T16:36:56.996Z,101716.55
2018-07-08T16:39:25.228Z,101720.77
2018-07-08T16:41:53.485Z,101718.84
2018-07-08T16:44:21.724Z,101718.01
2018-07-08T16:46:49.943Z,101727.55
2018-07-08T16:49:18.211Z,101722.69
2018-07-08T16:51:46.399Z,101722.57
2018-07-08T16:54:14.973Z,101724.46
2018-07-08T16:56:43.307Z,101719.27
2018-07-08T16:59:11.631Z,101718.50
2018-07-08T17:01:39.879Z,101719.94
2018-07-08T17:04:08.144Z,101716.45
2018-07-08T17:06:36.376Z,101714.52
2018-07-08T17:09:05.958Z,101721.36
2018-07-08T17:11:34.311Z,101716.39
2018-07-08T17:14:02.562Z,101708.16
2018-07-08T17:16:31.146Z,101717.84
2018-07-08T17:18:59.393Z,101717.91
2018-07-08T17:21:27.705Z,101718.62
2018-07-08T17:23:56.046Z,101711.31
2018-07-08T17:26:24.342Z,101715.28
2018-07-08T17:28:52.653Z,101711.33
2018-07-08T17:31:20.875Z,101716.46
2018-07-08T17:33:49.205Z,101714.58
2018-07-08T17:36:17.552Z,101719.17
2018-07-08T17:38:53.067Z,101721.23
2018-07-08T17:41:21.280Z,101724.26
2018-07-08T17:43:49.524Z,101721.04
2018-07-08T17:46:17.744Z,101724.38
2018-07-08T17:48:45.979Z,101726.84
2018-07-08T17:51:14.222Z,101721.50
2018-07-08T17:53:42.461Z,101719.17
2018-07-08T17:56:10.730Z,101720.27
2018-07-08T17:58:39.605Z,101721.78
2018-07-08T18:01:07.911Z,101720.46
2018-07-08T18:03:36.124Z,101728.17
2018-07-08T18:06:04.583Z,101721.19
2018-07-08T18:08:33.743Z,101731.51
2018-07-08T18:11:02.001Z,101738.36
2018-07-08T18:13:30.270Z,101728.40
2018-07-08T18:15:58.490Z,101729.58
2018-07-08T18:18:26.766Z,101732.31
2018-07-08T18:20:55.054Z,101729.28
2018-07-08T18:23:23.307Z,101736.25
2018-07-08T18:25:51.537Z,101732.42
2018-07-08T18:28:19.779Z,101733.15
2018-07-08T18:30:48.019Z,101736.34
2018-07-08T18:33:16.277Z,101729.33
2018-07-08T18:35:44.489Z,101721.22
2018-07-08T18:38:13.097Z,101726.05
2018-07-08T18:40:41.443Z,101723.52
2018-07-08T18:43:09.705Z,101729.47
2018-07-08T18:45:37.943Z,101724.82
2018-07-08T18:48:06.298Z,101726.48
2018-07-08T18:50:34.638Z,101724.06
2018-07-08T18:53:02.847Z,101722.65
2018-07-08T18:55:31.208Z,101726.37
2018-07-08T18:57:59.648Z,101725.07
2018-07-08T19:00:28.022Z,101726.03
2018-07-08T19:02:56.296Z,101731.83
2018-07-08T19:05:24.605Z,101737.08
2018-07-08T19:07:52.880Z,101727.52
2018-07-08T19:10:21.144Z,101734.38
2018-07-08T19:12:49.442Z,101736.54
2018-07-08T19:15:18.235Z,101744.27
2018-07-08T19:17:46.614Z,101739.58
2018-07-08T19:20:14.912Z,101745.48
2018-07-08T19:22:43.413Z,101729.19
2018-07-08T19:25:11.877Z,101736.30
2018-07-08T19:27:40.127Z,101743.42
2018-07-08T19:30:08.367Z,101743.88
2018-07-08T19:32:36.580Z,101753.29
2018-07-08T19:35:04.867Z,101749.52
2018-07-08T19:37:33.444Z,101749.18
2018-07-08T19:40:01.725Z,101752.77
2018-07-08T19:42:30.023Z,101752.44
2018-07-08T19:44:58.295Z,101748.53
2018-07-08T19:47:26.614Z,101755.18
2018-07-08T19:49:54.839Z,101756.45
2018-07-08T19:52:23.164Z,101750.17
2018-07-08T19:54:52.157Z,101753.40
2018-07-08T19:57:20.554Z,101758.34
2018-07-08T19:59:48.774Z,101759.97
2018-07-08T20:02:17.049Z,101766.30
2018-07-08T20:04:45.351Z,101772.68
2018-07-08T20:07:13.602Z,101766.32
2018-07-08T20:09:41.904Z,101774.06
2018-07-08T20:12:10.155Z,101780.95
2018-07-08T20:14:39.124Z,101773.34
2018-07-08T20:17:07.348Z,101776.86
2018-07-08T20:19:35.630Z,101778.02
2018-07-08T20:22:03.944Z,101785.38
2018-07-08T20:24:33.027Z,101779.52
2018-07-08T20:27:01.508Z,101778.00
2018-07-08T20:29:29.760Z,101775.13
2018-07-08T20:31:58.003Z,101782.81
2018-07-08T20:34:26.609Z,101782.89
2018-07-08T20:36:54.856Z,101777.85
2018-07-08T20:39:23.097Z,101787.20
2018-07-08T20:41:51.360Z,101781.45
2018-07-08T20:44:19.555Z,101792.43
2018-07-08T20:46:47.771Z,101780.66
2018-07-08T20:49:16.115Z,101784.52
2018-07-08T20:51:44.421Z,101789.97
2018-07-08T20:54:12.671Z,101802.00
2018-07-08T20:56:40.901Z,101798.19
2018-07-08T20:59:09.126Z,101794.89
2018-07-08T21:01:37.406Z,101799.56
2018-07-08T21:04:05.882Z,101801.22
2018-07-08T21:06:34.152Z,101798.75
2018-07-08T21:09:02.410Z,101798.19
2018-07-08T21:11:30.695Z,101797.39
2018-07-08T21:13:58.942Z,101809.37
2018-07-08T21:16:27.459Z,101796.27
2018-07-08T21:18:55.743Z,101803.34
2018-07-08T21:21:23.950Z,101804.98
2018-07-08T21:23:52.190Z,101798.73
2018-07-08T21:26:20.420Z,101798.77
2018-07-08T21:28:49.021Z,101800.59
2018-07-08T21:31:17.923Z,101789.72
2018-07-08T21:33:46.258Z,101792.44
2018-07-08T21:36:14.488Z,101793.55
2018-07-08T21:38:43.396Z,101787.83
2018-07-08T21:41:11.707Z,101788.28
2018-07-08T21:43:41.121Z,101789.97
2018-07-08T21:46:09.374Z,101792.72
2018-07-08T21:48:37.752Z,101788.33
2018-07-08T21:51:06.200Z,101788.02
2018-07-08T21:53:34.489Z,101788.83
2018-07-08T21:56:02.788Z,101793.80
2018-07-08T21:58:31.054Z,101791.89
2018-07-08T22:01:20.122Z,101796.73
2018-07-08T22:03:48.968Z,101798.30
2018-07-08T22:06:17.881Z,101792.89
2018-07-08T22:08:46.372Z,101798.09
2018-07-08T22:11:14.673Z,101794.27
2018-07-08T22:13:43.409Z,101804.17
2018-07-08T22:16:11.692Z,101801.07
2018-07-08T22:18:40.095Z,101804.14
2018-07-08T22:21:09.189Z,101799.27
2018-07-08T22:23:37.518Z,101799.84
2018-07-08T22:26:06.008Z,101786.88
2018-07-08T22:28:34.554Z,101795.48
2018-07-08T22:31:03.091Z,101803.65
2018-07-08T22:33:31.399Z,101797.14
2018-07-08T22:35:59.650Z,101804.23
2018-07-08T22:38:27.872Z,101797.52
2018-07-08T22:40:56.108Z,101795.45
2018-07-08T22:43:24.331Z,101801.52
2018-07-08T22:45:52.537Z,101793.66
2018-07-08T22:48:20.761Z,101793.16
2018-07-08T22:50:49.051Z,101795.26
2018-07-08T22:53:17.280Z,101791.83
2018-07-08T22:55:45.539Z,101787.42
2018-07-08T22:58:13.748Z,101783.50
2018-07-08T23:00:53.472Z,101789.13
2018-07-08T23:03:56.096Z,101786.98
2018-07-08T23:06:24.336Z,101776.05
2018-07-08T23:08:53.032Z,101782.19
2018-07-08T23:11:21.821Z,101784.92
2018-07-08T23:13:50.927Z,101787.27
2018-07-08T23:16:19.535Z,101787.45
2018-07-08T23:18:47.803Z,101788.34
2018-07-08T23:21:16.604Z,101777.53
2018-07-08T23:23:44.965Z,101775.87
2018-07-08T23:26:13.201Z,101783.23
2018-07-08T23:28:41.453Z,101785.10
2018-07-08T23:31:10.219Z,101779.33
2018-07-08T23:33:38.530Z,101779.78
2018-07-08T23:36:07.250Z,101788.54
2018-07-08T23:38:35.663Z,101788.48
2018-07-08T23:41:04.969Z,101791.52
2018-07-08T23:43:33.217Z,101785.84
2018-07-08T23:46:02.140Z,101793.02
2018-07-08T23:48:30.552Z,101790.32
2018-07-08T23:50:58.758Z,101789.72
2018-07-08T23:53:27.129Z,101789.97
2018-07-08T23:55:55.435Z,101789.30
2018-07-08T23:58:23.650Z,101780.27
